createdAt,value
2019-02-21T00:00:11.528Z,27.57
2019-02-21T00:02:41.436Z,27.87
2019-02-21T00:05:12.538Z,27.00
2019-02-21T00:07:42.644Z,28.87
2019-02-21T00:10:14.427Z,26.97
2019-02-21T00:12:44.212Z,29.77
2019-02-21T00:15:14.588Z,29.77
2019-02-21T00:17:45.044Z,27.63
2019-02-21T00:20:15.744Z,26.87
2019-02-21T00:22:45.891Z,27.20
2019-02-21T00:25:21.349Z,29.02
2019-02-21T00:27:51.360Z,27.60
2019-02-21T00:30:20.861Z,27.30
2019-02-21T00:32:50.261Z,27.57
2019-02-21T00:35:19.808Z,27.27
2019-02-21T00:37:49.194Z,29.50
2019-02-21T00:40:20.001Z,26.33
2019-02-21T00:42:49.356Z,26.03
2019-02-21T00:45:19.642Z,27.93
2019-02-21T00:47:48.972Z,25.10
2019-02-21T00:50:18.857Z,27.45
2019-02-21T00:52:48.240Z,26.07
2019-02-21T00:55:18.060Z,27.70
2019-02-21T00:57:47.490Z,26.00
2019-02-21T01:00:18.121Z,26.90
2019-02-21T01:02:47.564Z,26.33
2019-02-21T01:05:18.480Z,26.82
2019-02-21T01:07:47.898Z,26.80
2019-02-21T01:10:18.089Z,25.96
2019-02-21T01:12:48.476Z,25.27
2019-02-21T01:15:18.318Z,28.02
2019-02-21T01:17:47.960Z,27.47
2019-02-21T01:20:18.167Z,26.27
2019-02-21T01:22:47.591Z,25.63
2019-02-21T01:25:18.063Z,26.20
2019-02-21T01:27:47.946Z,27.33
2019-02-21T01:30:18.636Z,27.24
2019-02-21T01:32:48.051Z,27.67
2019-02-21T01:35:18.413Z,27.72
2019-02-21T01:37:51.223Z,27.03
2019-02-21T01:40:21.710Z,27.58
2019-02-21T01:42:51.122Z,26.50
2019-02-21T01:45:20.640Z,26.90
2019-02-21T01:47:50.084Z,27.60
2019-02-21T01:50:20.123Z,25.50
2019-02-21T01:52:49.561Z,25.47
2019-02-21T01:55:18.964Z,26.43
2019-02-21T01:57:49.494Z,25.47
2019-02-21T02:00:18.916Z,26.73
2019-02-21T02:02:51.389Z,28.33
2019-02-21T02:05:22.010Z,27.93
2019-02-21T02:08:12.749Z,27.23
2019-02-21T02:10:48.669Z,26.52
2019-02-21T02:13:24.559Z,27.63
2019-02-21T02:15:49.282Z,26.12
2019-02-21T02:18:18.729Z,27.33
2019-02-21T02:20:49.243Z,27.25
2019-02-21T02:23:18.669Z,27.20
2019-02-21T02:25:48.644Z,27.95
2019-02-21T02:28:18.672Z,27.87
2019-02-21T02:30:49.203Z,27.13
2019-02-21T02:33:18.775Z,28.77
2019-02-21T02:35:50.030Z,27.93
2019-02-21T02:38:19.569Z,27.67
2019-02-21T02:40:50.057Z,27.90
2019-02-21T02:43:21.981Z,27.57
2019-02-21T02:45:51.638Z,28.23
2019-02-21T02:48:22.445Z,27.87
2019-02-21T02:50:51.834Z,29.30
2019-02-21T02:53:21.241Z,28.42
2019-02-21T02:55:50.709Z,29.20
2019-02-21T02:58:20.111Z,29.72
2019-02-21T03:00:49.490Z,28.60
2019-02-21T03:03:19.286Z,28.33
2019-02-21T03:05:48.879Z,25.73
2019-02-21T03:08:19.059Z,28.50
2019-02-21T03:10:48.507Z,27.43
2019-02-21T03:13:18.116Z,28.17
2019-02-21T03:15:50.174Z,28.17
2019-02-21T03:18:19.588Z,26.97
2019-02-21T03:20:50.390Z,28.30
2019-02-21T03:23:19.773Z,26.90
2019-02-21T03:25:50.459Z,27.10
2019-02-21T03:28:20.619Z,27.87
2019-02-21T03:30:49.993Z,27.60
2019-02-21T03:33:20.086Z,27.50
2019-02-21T03:35:50.107Z,28.30
2019-02-21T03:38:20.125Z,29.63
2019-02-21T03:40:53.037Z,26.17
2019-02-21T03:43:25.711Z,28.57
2019-02-21T03:45:55.102Z,27.15
2019-02-21T03:48:28.870Z,28.93
2019-02-21T03:50:58.692Z,25.05
2019-02-21T03:53:29.388Z,27.93
2019-02-21T03:55:59.460Z,26.27
2019-02-21T03:58:29.431Z,25.63
2019-02-21T04:01:02.114Z,26.00
2019-02-21T04:03:31.853Z,24.90
2019-02-21T04:06:01.277Z,25.87
2019-02-21T04:08:31.536Z,26.87
2019-02-21T04:11:01.386Z,26.30
2019-02-21T04:13:33.290Z,25.47
2019-02-21T04:16:04.252Z,26.80
2019-02-21T04:18:37.700Z,27.33
2019-02-21T04:21:12.348Z,27.23
2019-02-21T04:23:41.753Z,25.90
2019-02-21T04:26:11.720Z,25.88
2019-02-21T04:28:41.125Z,27.48
2019-02-21T04:31:11.467Z,26.00
2019-02-21T04:33:43.971Z,26.03
2019-02-21T04:36:15.647Z,24.73
2019-02-21T04:38:45.107Z,25.50
2019-02-21T04:41:16.728Z,25.40
2019-02-21T04:43:50.125Z,25.88
2019-02-21T04:46:26.302Z,27.87
2019-02-21T04:48:55.694Z,28.50
2019-02-21T04:51:25.464Z,26.77
2019-02-21T04:53:54.841Z,26.93
2019-02-21T04:56:24.746Z,26.77
2019-02-21T04:58:54.436Z,26.17
2019-02-21T05:01:23.824Z,26.95
2019-02-21T05:03:54.202Z,30.17
2019-02-21T05:06:23.609Z,30.03
2019-02-21T05:08:55.174Z,28.80
2019-02-21T05:11:24.718Z,26.40
2019-02-21T05:13:56.269Z,25.45
2019-02-21T05:16:25.677Z,27.27
2019-02-21T05:18:55.911Z,28.07
2019-02-21T05:21:27.549Z,34.53
2019-02-21T05:23:57.205Z,33.10
2019-02-21T05:26:32.161Z,38.60
2019-02-21T05:29:02.147Z,36.37
2019-02-21T05:31:50.643Z,44.38
2019-02-21T05:34:43.749Z,34.00
2019-02-21T05:37:25.585Z,30.92
2019-02-21T05:40:03.775Z,29.90
2019-02-21T05:42:58.644Z,29.75
2019-02-21T05:45:41.600Z,30.85
2019-02-21T05:48:29.920Z,25.70
2019-02-21T05:51:22.204Z,26.40
2019-02-21T05:54:08.853Z,25.27
2019-02-21T05:57:01.140Z,26.70
2019-02-21T05:59:47.806Z,25.50
2019-02-21T06:02:28.252Z,23.95
2019-02-21T06:05:19.329Z,22.87
2019-02-21T06:08:05.496Z,24.83
2019-02-21T06:10:49.195Z,23.55
2019-02-21T06:13:38.940Z,24.13
2019-02-21T06:16:27.280Z,22.90
2019-02-21T06:19:26.257Z,22.77
2019-02-21T06:22:10.759Z,23.53
2019-02-21T06:25:06.033Z,24.10
2019-02-21T06:27:45.223Z,23.33
2019-02-21T06:30:24.734Z,23.50
2019-02-21T06:33:05.041Z,22.50
2019-02-21T06:35:28.294Z,23.50
2019-02-21T06:38:01.289Z,24.63
2019-02-21T06:40:36.460Z,24.63
2019-02-21T06:43:07.620Z,23.30
2019-02-21T06:45:40.593Z,25.08
2019-02-21T06:48:13.923Z,24.07
2019-02-21T06:50:49.126Z,38.10
2019-02-21T06:53:19.961Z,26.73
2019-02-21T06:55:50.264Z,24.60
2019-02-21T06:58:22.228Z,24.10
2019-02-21T07:00:52.532Z,24.47
2019-02-21T07:03:25.226Z,25.62
2019-02-21T07:05:56.178Z,23.57
2019-02-21T07:08:28.027Z,23.47
2019-02-21T07:11:06.164Z,21.80
2019-02-21T07:13:34.086Z,22.97
2019-02-21T07:16:08.448Z,23.13
2019-02-21T07:18:41.299Z,23.00
2019-02-21T07:21:14.159Z,22.80
2019-02-21T07:23:47.526Z,23.60
2019-02-21T07:26:23.756Z,20.80
2019-02-21T07:28:58.640Z,22.60
2019-02-21T07:31:32.640Z,22.13
2019-02-21T07:34:09.317Z,22.30
2019-02-21T07:36:42.638Z,21.83
2019-02-21T07:39:19.806Z,21.97
2019-02-21T07:41:55.633Z,21.23
2019-02-21T07:44:28.032Z,22.40
2019-02-21T07:47:01.622Z,20.90
2019-02-21T07:49:37.794Z,21.30
2019-02-21T07:52:10.875Z,21.62
2019-02-21T07:54:41.638Z,22.67
2019-02-21T07:57:12.864Z,21.33
2019-02-21T07:59:43.838Z,21.23
2019-02-21T08:02:16.874Z,21.17
2019-02-21T08:04:49.330Z,20.27
2019-02-21T08:07:19.951Z,19.03
2019-02-21T08:09:52.889Z,20.57
2019-02-21T08:12:28.514Z,20.47
2019-02-21T08:14:59.524Z,19.23
2019-02-21T08:17:29.178Z,19.23
2019-02-21T08:20:08.479Z,19.30
2019-02-21T08:22:35.168Z,19.03
2019-02-21T08:25:05.839Z,19.17
2019-02-21T08:27:36.639Z,19.40
2019-02-21T08:30:08.562Z,19.65
2019-02-21T08:32:56.991Z,20.70
2019-02-21T08:35:26.377Z,20.10
2019-02-21T08:37:55.799Z,18.77
2019-02-21T08:40:25.269Z,21.67
2019-02-21T08:42:54.694Z,23.57
2019-02-21T08:45:24.082Z,26.02
2019-02-21T08:47:53.602Z,23.23
2019-02-21T08:50:25.441Z,24.13
2019-02-21T08:52:55.374Z,24.50
2019-02-21T08:55:26.456Z,24.97
2019-02-21T08:57:55.825Z,25.70
2019-02-21T09:00:25.218Z,24.45
2019-02-21T09:02:55.541Z,25.60
2019-02-21T09:05:25.865Z,26.30
2019-02-21T09:07:55.429Z,25.73
2019-02-21T09:10:29.069Z,26.40
2019-02-21T09:12:59.681Z,26.60
2019-02-21T09:15:30.946Z,26.75
2019-02-21T09:18:03.148Z,27.20
2019-02-21T09:20:33.566Z,28.30
2019-02-21T09:23:05.027Z,27.47
2019-02-21T09:25:35.721Z,27.45
2019-02-21T09:28:05.432Z,27.00
2019-02-21T09:30:37.697Z,26.65
2019-02-21T09:33:17.014Z,26.87
2019-02-21T09:35:38.712Z,26.33
2019-02-21T09:38:08.768Z,26.15
2019-02-21T09:40:42.673Z,24.27
2019-02-21T09:43:11.838Z,23.00
2019-02-21T09:45:42.567Z,23.50
2019-02-21T09:48:14.517Z,22.10
2019-02-21T09:50:46.351Z,23.00
2019-02-21T09:53:16.221Z,23.25
2019-02-21T09:55:50.279Z,23.83
2019-02-21T09:58:18.932Z,22.00
2019-02-21T10:00:49.432Z,22.00
2019-02-21T10:03:20.280Z,23.00
2019-02-21T10:05:50.015Z,24.10
2019-02-21T10:08:21.934Z,22.80
2019-02-21T10:10:52.063Z,22.40
2019-02-21T10:13:22.946Z,20.17
2019-02-21T10:15:53.132Z,21.00
2019-02-21T10:18:24.924Z,20.87
2019-02-21T10:20:54.225Z,21.43
2019-02-21T10:23:25.102Z,21.30
2019-02-21T10:25:54.541Z,20.03
2019-02-21T10:28:25.396Z,20.30
2019-02-21T10:30:55.102Z,20.23
2019-02-21T10:33:25.481Z,19.77
2019-02-21T10:36:04.493Z,19.47
2019-02-21T10:38:34.507Z,16.90
2019-02-21T10:41:05.016Z,17.17
2019-02-21T10:43:39.746Z,17.90
2019-02-21T10:46:09.083Z,18.67
2019-02-21T10:48:39.014Z,18.30
2019-02-21T10:51:08.579Z,18.37
2019-02-21T10:53:39.407Z,20.67
2019-02-21T10:56:10.420Z,19.53
2019-02-21T10:58:39.778Z,20.03
2019-02-21T11:01:10.817Z,20.92
2019-02-21T11:03:40.872Z,19.90
2019-02-21T11:06:10.257Z,20.50
2019-02-21T11:08:39.680Z,19.10
2019-02-21T11:11:10.578Z,20.92
2019-02-21T11:13:39.957Z,21.10
2019-02-21T11:16:10.173Z,19.40
2019-02-21T11:18:40.166Z,19.87
2019-02-21T11:21:09.525Z,20.53
2019-02-21T11:23:38.928Z,18.33
2019-02-21T11:26:08.521Z,17.83
2019-02-21T11:28:37.916Z,17.23
2019-02-21T11:31:07.936Z,16.43
2019-02-21T11:33:37.682Z,16.47
2019-02-21T11:36:09.628Z,16.90
2019-02-21T11:38:41.606Z,16.83
2019-02-21T11:41:13.791Z,16.23
2019-02-21T11:43:42.670Z,17.20
2019-02-21T11:46:13.776Z,17.35
2019-02-21T11:48:43.249Z,17.85
2019-02-21T11:51:12.807Z,18.00
2019-02-21T11:53:42.198Z,16.73
2019-02-21T11:56:11.649Z,17.27
2019-02-21T11:58:41.037Z,17.70
2019-02-21T12:01:11.606Z,17.60
2019-02-21T12:03:41.400Z,18.43
2019-02-21T12:06:10.927Z,16.80
2019-02-21T12:08:41.575Z,17.20
2019-02-21T12:11:11.000Z,17.40
2019-02-21T12:13:40.398Z,17.57
2019-02-21T12:16:10.124Z,17.70
2019-02-21T12:18:40.324Z,18.40
2019-02-21T12:21:10.108Z,18.40
2019-02-21T12:23:43.057Z,19.00
2019-02-21T12:26:13.216Z,17.60
2019-02-21T12:28:43.173Z,17.87
2019-02-21T12:31:12.702Z,18.87
2019-02-21T12:33:42.337Z,18.77
2019-02-21T12:36:11.925Z,17.20
2019-02-21T12:38:41.317Z,19.07
2019-02-21T12:41:11.321Z,19.70
2019-02-21T12:43:43.558Z,20.43
2019-02-21T12:46:12.961Z,19.03
2019-02-21T12:48:44.547Z,17.20
2019-02-21T12:51:14.012Z,18.13
2019-02-21T12:53:43.729Z,19.33
2019-02-21T12:56:13.765Z,19.55
2019-02-21T12:58:45.208Z,18.10
2019-02-21T13:01:14.266Z,18.05
2019-02-21T13:03:43.699Z,19.40
2019-02-21T13:06:13.473Z,19.67
2019-02-21T13:08:43.638Z,18.50
2019-02-21T13:11:13.493Z,19.37
2019-02-21T13:13:43.044Z,17.30
2019-02-21T13:16:12.462Z,18.90
2019-02-21T13:18:42.505Z,18.67
2019-02-21T13:21:12.947Z,17.77
2019-02-21T13:23:43.021Z,20.37
2019-02-21T13:26:14.222Z,18.67
2019-02-21T13:28:43.841Z,17.40
2019-02-21T13:31:14.088Z,18.07
2019-02-21T13:33:48.792Z,18.40
2019-02-21T13:36:21.997Z,19.47
2019-02-21T13:38:54.981Z,20.40
2019-02-21T13:41:25.626Z,20.35
2019-02-21T13:43:56.362Z,20.53
2019-02-21T13:46:36.745Z,20.23
2019-02-21T13:48:57.441Z,22.20
2019-02-21T13:51:26.827Z,21.67
2019-02-21T13:53:56.645Z,19.97
2019-02-21T13:56:26.885Z,22.30
2019-02-21T13:58:56.362Z,20.47
2019-02-21T14:01:25.742Z,21.37
2019-02-21T14:03:56.695Z,21.23
2019-02-21T14:06:26.244Z,21.23
2019-02-21T14:08:56.438Z,20.00
2019-02-21T14:11:27.113Z,21.30
2019-02-21T14:13:56.996Z,21.23
2019-02-21T14:16:27.219Z,20.80
2019-02-21T14:18:57.355Z,22.40
2019-02-21T14:21:26.821Z,19.13
2019-02-21T14:23:57.065Z,19.67
2019-02-21T14:26:31.766Z,19.30
2019-02-21T14:29:01.179Z,21.70
2019-02-21T14:31:33.622Z,19.47
2019-02-21T14:34:03.604Z,20.10
2019-02-21T14:36:34.390Z,20.87
2019-02-21T14:39:06.873Z,22.07
2019-02-21T14:41:36.905Z,22.40
2019-02-21T14:44:06.257Z,21.47
2019-02-21T14:46:35.753Z,21.37
2019-02-21T14:49:05.660Z,20.70
2019-02-21T14:51:35.045Z,20.80
2019-02-21T14:54:04.881Z,21.97
2019-02-21T14:56:34.294Z,21.90
2019-02-21T14:59:06.314Z,23.17
2019-02-21T15:01:35.874Z,21.27
2019-02-21T15:04:05.563Z,23.30
2019-02-21T15:06:35.461Z,22.80
2019-02-21T15:09:07.112Z,23.03
2019-02-21T15:11:37.218Z,22.70
2019-02-21T15:14:06.887Z,21.20
2019-02-21T15:16:36.706Z,19.93
2019-02-21T15:19:06.404Z,22.70
2019-02-21T15:21:35.789Z,21.30
2019-02-21T15:24:06.321Z,19.40
2019-02-21T15:26:36.547Z,20.50
2019-02-21T15:29:07.010Z,18.90
2019-02-21T15:31:36.613Z,19.70
2019-02-21T15:34:06.072Z,17.17
2019-02-21T15:36:38.544Z,16.40
2019-02-21T15:39:09.513Z,13.97
2019-02-21T15:41:39.018Z,14.57
2019-02-21T15:44:08.781Z,13.87
2019-02-21T15:46:38.546Z,14.40
2019-02-21T15:49:08.461Z,13.33
2019-02-21T15:51:37.883Z,14.33
2019-02-21T15:54:07.664Z,14.57
2019-02-21T15:56:37.251Z,14.33
2019-02-21T15:59:06.654Z,14.97
2019-02-21T16:01:46.934Z,15.10
2019-02-21T16:04:07.142Z,14.58
2019-02-21T16:06:51.123Z,13.60
2019-02-21T16:09:16.221Z,14.97
2019-02-21T16:11:42.275Z,13.90
2019-02-21T16:14:12.342Z,17.57
2019-02-21T16:16:42.308Z,22.50
2019-02-21T16:19:11.843Z,21.67
2019-02-21T16:21:41.258Z,19.40
2019-02-21T16:24:10.656Z,23.20
2019-02-21T16:26:40.049Z,20.90
2019-02-21T16:29:09.428Z,16.27
2019-02-21T16:31:38.837Z,14.40
2019-02-21T16:34:09.238Z,15.67
2019-02-21T16:36:39.249Z,19.13
2019-02-21T16:39:08.811Z,18.27
2019-02-21T16:41:39.018Z,15.23
2019-02-21T16:44:08.826Z,16.17
2019-02-21T16:46:38.229Z,16.03
2019-02-21T16:49:07.697Z,17.93
2019-02-21T16:51:37.416Z,17.67
2019-02-21T16:54:08.517Z,17.37
2019-02-21T16:56:38.661Z,17.40
2019-02-21T16:59:09.822Z,18.57
2019-02-21T17:01:39.370Z,21.70
2019-02-21T17:04:09.184Z,19.00
2019-02-21T17:06:38.689Z,20.30
2019-02-21T17:09:08.805Z,19.40
2019-02-21T17:11:38.253Z,21.73
2019-02-21T17:14:07.661Z,19.87
2019-02-21T17:16:37.057Z,19.80
2019-02-21T17:19:06.527Z,19.20
2019-02-21T17:21:35.941Z,20.47
2019-02-21T17:24:05.513Z,23.30
2019-02-21T17:26:35.072Z,20.92
2019-02-21T17:29:04.590Z,22.23
2019-02-21T17:31:34.280Z,21.90
2019-02-21T17:34:04.259Z,21.20
2019-02-21T17:36:34.858Z,20.63
2019-02-21T17:39:04.928Z,22.10
2019-02-21T17:41:36.114Z,23.20
2019-02-21T17:44:05.523Z,20.17
2019-02-21T17:46:35.471Z,20.97
2019-02-21T17:49:06.757Z,21.70
2019-02-21T17:51:36.452Z,21.73
2019-02-21T17:54:06.389Z,22.17
2019-02-21T17:56:35.822Z,21.20
2019-02-21T17:59:05.239Z,21.40
2019-02-21T18:01:34.697Z,21.57
2019-02-21T18:04:04.330Z,22.32
2019-02-21T18:06:33.775Z,23.30
2019-02-21T18:09:04.348Z,23.27
2019-02-21T18:11:38.311Z,23.10
2019-02-21T18:14:07.676Z,23.93
2019-02-21T18:16:38.591Z,22.65
2019-02-21T18:19:12.936Z,25.03
2019-02-21T18:21:42.412Z,24.60
2019-02-21T18:24:11.816Z,24.47
2019-02-21T18:26:41.694Z,24.23
2019-02-21T18:29:11.302Z,25.48
2019-02-21T18:31:41.080Z,23.30
2019-02-21T18:34:10.596Z,23.30
2019-02-21T18:36:40.641Z,24.50
2019-02-21T18:39:10.435Z,25.70
2019-02-21T18:41:42.681Z,25.80
2019-02-21T18:44:12.609Z,26.02
2019-02-21T18:46:42.215Z,27.17
2019-02-21T18:49:12.102Z,25.60
2019-02-21T18:51:42.461Z,26.57
2019-02-21T18:54:13.526Z,27.57
2019-02-21T18:56:45.897Z,28.53
2019-02-21T18:59:28.954Z,29.92
2019-02-21T19:01:51.373Z,29.00
2019-02-21T19:04:21.653Z,27.80
2019-02-21T19:06:55.136Z,27.87
2019-02-21T19:09:29.721Z,28.60
2019-02-21T19:12:00.070Z,28.20
2019-02-21T19:14:32.401Z,29.13
2019-02-21T19:17:02.017Z,29.93
2019-02-21T19:19:31.445Z,29.33
2019-02-21T19:22:00.837Z,30.43
2019-02-21T19:24:30.212Z,29.82
2019-02-21T19:27:00.139Z,28.90
2019-02-21T19:29:31.757Z,31.00
2019-02-21T19:32:01.169Z,30.40
2019-02-21T19:34:30.685Z,30.40
2019-02-21T19:37:00.097Z,28.52
2019-02-21T19:39:30.949Z,30.03
2019-02-21T19:42:00.661Z,30.30
2019-02-21T19:44:30.066Z,30.62
2019-02-21T19:47:00.478Z,32.67
2019-02-21T19:49:29.989Z,30.20
2019-02-21T19:52:00.929Z,31.67
2019-02-21T19:54:30.338Z,29.90
2019-02-21T19:57:00.727Z,30.10
2019-02-21T19:59:30.144Z,28.60
2019-02-21T20:01:59.725Z,30.13
2019-02-21T20:04:31.287Z,29.25
2019-02-21T20:07:01.900Z,29.87
2019-02-21T20:09:32.335Z,28.87
2019-02-21T20:12:02.091Z,29.73
2019-02-21T20:14:31.575Z,31.33
2019-02-21T20:17:01.140Z,30.27
2019-02-21T20:19:31.031Z,30.83
2019-02-21T20:22:00.437Z,31.20
2019-02-21T20:24:30.569Z,31.67
2019-02-21T20:27:00.429Z,31.47
2019-02-21T20:29:29.976Z,30.73
2019-02-21T20:31:59.840Z,32.60
2019-02-21T20:34:29.847Z,34.40
2019-02-21T20:36:59.285Z,34.37
2019-02-21T20:39:30.234Z,34.70
2019-02-21T20:41:59.709Z,32.20
2019-02-21T20:44:29.697Z,31.67
2019-02-21T20:46:59.113Z,32.77
2019-02-21T20:49:29.348Z,33.75
2019-02-21T20:51:59.095Z,33.57
2019-02-21T20:54:28.836Z,36.43
2019-02-21T20:56:59.315Z,34.70
2019-02-21T20:59:28.930Z,33.10
2019-02-21T21:02:00.087Z,31.40
2019-02-21T21:04:29.585Z,31.50
2019-02-21T21:06:59.152Z,32.47
2019-02-21T21:09:28.773Z,34.10
2019-02-21T21:12:17.380Z,33.83
2019-02-21T21:14:47.058Z,35.93
2019-02-21T21:17:18.147Z,39.38
2019-02-21T21:19:47.583Z,38.57
2019-02-21T21:22:18.952Z,36.77
2019-02-21T21:24:48.313Z,35.63
2019-02-21T21:27:19.060Z,34.03
2019-02-21T21:29:50.225Z,34.83
2019-02-21T21:32:26.662Z,36.27
2019-02-21T21:34:58.191Z,36.63
2019-02-21T21:37:31.711Z,37.58
2019-02-21T21:40:01.069Z,37.45
2019-02-21T21:42:31.225Z,38.20
2019-02-21T21:45:01.111Z,37.87
2019-02-21T21:47:32.069Z,32.53
2019-02-21T21:50:01.428Z,33.10
2019-02-21T21:52:33.262Z,33.85
2019-02-21T21:55:03.346Z,31.93
2019-02-21T21:57:33.340Z,31.27
2019-02-21T22:00:06.514Z,31.57
2019-02-21T22:02:35.936Z,32.80
2019-02-21T22:05:06.661Z,33.37
2019-02-21T22:07:37.219Z,34.17
2019-02-21T22:10:09.760Z,31.90
2019-02-21T22:12:39.382Z,31.90
2019-02-21T22:15:10.084Z,32.67
2019-02-21T22:17:42.119Z,34.67
2019-02-21T22:20:14.412Z,34.00
2019-02-21T22:22:43.784Z,35.00
2019-02-21T22:25:14.024Z,33.70
2019-02-21T22:27:44.177Z,35.30
2019-02-21T22:30:18.167Z,35.57
2019-02-21T22:32:47.565Z,32.60
2019-02-21T22:35:18.133Z,34.42
2019-02-21T22:37:47.719Z,33.97
2019-02-21T22:40:18.465Z,34.92
2019-02-21T22:42:48.797Z,32.67
2019-02-21T22:45:18.174Z,33.13
2019-02-21T22:47:47.768Z,32.40
2019-02-21T22:50:18.132Z,33.02
2019-02-21T22:52:47.566Z,35.23
2019-02-21T22:55:18.167Z,35.90
2019-02-21T22:57:47.582Z,33.13
2019-02-21T23:01:00.644Z,32.93
2019-02-21T23:03:59.486Z,32.90
2019-02-21T23:06:39.831Z,32.30
2019-02-21T23:09:26.896Z,34.33
2019-02-21T23:11:50.643Z,34.17
2019-02-21T23:14:20.037Z,31.40
2019-02-21T23:16:49.790Z,32.50
2019-02-21T23:19:19.745Z,33.78
2019-02-21T23:21:51.000Z,32.65
2019-02-21T23:24:22.363Z,33.90
2019-02-21T23:26:53.110Z,35.40
2019-02-21T23:29:22.461Z,33.20
2019-02-21T23:31:52.201Z,32.40
2019-02-21T23:34:30.409Z,32.03
2019-02-21T23:37:00.009Z,34.87
2019-02-21T23:39:37.923Z,33.80
2019-02-21T23:42:00.529Z,32.57
2019-02-21T23:44:29.918Z,35.73
2019-02-21T23:46:59.328Z,33.57
2019-02-21T23:49:29.251Z,35.30
2019-02-21T23:51:58.977Z,35.30
2019-02-21T23:54:28.365Z,35.33
2019-02-21T23:56:57.927Z,34.63
2019-02-21T23:59:27.605Z,34.55
